sensor_id;sensor_type;location;lat;lon;timestamp;P1;durP1;ratioP1;P2;durP2;ratioP2
3217;SDS011;1621;49.702;8.618;2022-12-24T00:02:22;14.57;;;4.00;;
3217;SDS011;1621;49.702;8.618;2022-12-24T00:04:48;17.33;;;4.80;;
3217;SDS011;1621;49.702;8.618;2022-12-24T00:07:15;11.93;;;4.00;;
3217;SDS011;1621;49.702;8.618;2022-12-24T00:09:41;15.60;;;3.80;;
3217;SDS011;1621;49.702;8.618;2022-12-24T00:12:07;10.93;;;4.43;;
3217;SDS011;1621;49.702;8.618;2022-12-24T00:14:33;9.77;;;3.80;;
3217;SDS011;1621;49.702;8.618;2022-12-24T00:17:01;17.63;;;5.13;;
3217;SDS011;1621;49.702;8.618;2022-12-24T00:19:27;12.70;;;3.90;;
3217;SDS011;1621;49.702;8.618;2022-12-24T00:21:53;17.90;;;4.60;;
3217;SDS011;1621;49.702;8.618;2022-12-24T00:24:20;12.30;;;4.50;;
3217;SDS011;1621;49.702;8.618;2022-12-24T00:26:46;13.77;;;4.40;;
3217;SDS011;1621;49.702;8.618;2022-12-24T00:29:12;10.60;;;3.13;;
3217;SDS011;1621;49.702;8.618;2022-12-24T00:31:38;16.33;;;4.20;;
3217;SDS011;1621;49.702;8.618;2022-12-24T00:34:06;16.20;;;4.10;;
3217;SDS011;1621;49.702;8.618;2022-12-24T00:36:33;7.73;;;3.07;;
3217;SDS011;1621;49.702;8.618;2022-12-24T00:38:59;13.33;;;2.63;;
3217;SDS011;1621;49.702;8.618;2022-12-24T00:41:25;8.50;;;3.50;;
3217;SDS011;1621;49.702;8.618;2022-12-24T00:43:53;15.30;;;3.60;;
3217;SDS011;1621;49.702;8.618;2022-12-24T00:46:20;11.20;;;3.10;;
3217;SDS011;1621;49.702;8.618;2022-12-24T00:48:46;9.23;;;2.80;;
3217;SDS011;1621;49.702;8.618;2022-12-24T00:51:14;9.70;;;3.13;;
3217;SDS011;1621;49.702;8.618;2022-12-24T00:53:40;8.43;;;3.10;;
3217;SDS011;1621;49.702;8.618;2022-12-24T00:56:07;12.33;;;3.60;;
3217;SDS011;1621;49.702;8.618;2022-12-24T00:58:33;12.73;;;3.57;;
3217;SDS011;1621;49.702;8.618;2022-12-24T01:01:00;7.47;;;3.10;;
3217;SDS011;1621;49.702;8.618;2022-12-24T01:03:26;11.90;;;3.53;;
3217;SDS011;1621;49.702;8.618;2022-12-24T01:05:59;11.63;;;3.47;;
3217;SDS011;1621;49.702;8.618;2022-12-24T01:08:26;9.93;;;2.90;;
3217;SDS011;1621;49.702;8.618;2022-12-24T01:10:52;10.80;;;3.60;;
3217;SDS011;1621;49.702;8.618;2022-12-24T01:13:19;17.67;;;4.07;;
3217;SDS011;1621;49.702;8.618;2022-12-24T01:15:45;11.17;;;3.30;;
3217;SDS011;1621;49.702;8.618;2022-12-24T01:18:12;9.47;;;3.50;;
3217;SDS011;1621;49.702;8.618;2022-12-24T01:20:38;10.33;;;3.20;;
3217;SDS011;1621;49.702;8.618;2022-12-24T01:23:04;13.03;;;3.53;;
3217;SDS011;1621;49.702;8.618;2022-12-24T01:25:32;6.63;;;3.17;;
3217;SDS011;1621;49.702;8.618;2022-12-24T01:27:58;10.73;;;3.30;;
3217;SDS011;1621;49.702;8.618;2022-12-24T01:30:24;6.60;;;2.80;;
3217;SDS011;1621;49.702;8.618;2022-12-24T01:32:51;9.33;;;2.63;;
3217;SDS011;1621;49.702;8.618;2022-12-24T01:35:17;11.23;;;3.37;;
3217;SDS011;1621;49.702;8.618;2022-12-24T01:37:43;9.27;;;3.10;;
3217;SDS011;1621;49.702;8.618;2022-12-24T01:40:10;9.30;;;3.20;;
3217;SDS011;1621;49.702;8.618;2022-12-24T01:43:11;10.23;;;3.23;;
3217;SDS011;1621;49.702;8.618;2022-12-24T01:45:52;11.60;;;3.40;;
3217;SDS011;1621;49.702;8.618;2022-12-24T01:48:21;10.43;;;3.70;;
3217;SDS011;1621;49.702;8.618;2022-12-24T01:50:48;9.53;;;3.13;;
3217;SDS011;1621;49.702;8.618;2022-12-24T01:53:15;11.63;;;3.50;;
3217;SDS011;1621;49.702;8.618;2022-12-24T01:55:42;11.13;;;3.00;;
3217;SDS011;1621;49.702;8.618;2022-12-24T01:58:09;8.70;;;2.87;;
3217;SDS011;1621;49.702;8.618;2022-12-24T02:00:37;8.17;;;2.80;;
3217;SDS011;1621;49.702;8.618;2022-12-24T02:03:03;12.93;;;3.17;;
3217;SDS011;1621;49.702;8.618;2022-12-24T02:05:31;12.23;;;3.57;;
3217;SDS011;1621;49.702;8.618;2022-12-24T02:07:59;9.83;;;2.80;;
3217;SDS011;1621;49.702;8.618;2022-12-24T02:10:27;8.07;;;2.70;;
3217;SDS011;1621;49.702;8.618;2022-12-24T02:12:53;9.27;;;2.60;;
3217;SDS011;1621;49.702;8.618;2022-12-24T02:15:20;17.13;;;3.83;;
3217;SDS011;1621;49.702;8.618;2022-12-24T02:17:49;9.73;;;3.80;;
3217;SDS011;1621;49.702;8.618;2022-12-24T02:23:02;8.67;;;4.07;;
3217;SDS011;1621;49.702;8.618;2022-12-24T02:25:34;14.67;;;4.60;;
3217;SDS011;1621;49.702;8.618;2022-12-24T02:28:08;10.13;;;3.10;;
3217;SDS011;1621;49.702;8.618;2022-12-24T02:30:39;9.77;;;2.83;;
3217;SDS011;1621;49.702;8.618;2022-12-24T02:33:09;15.27;;;3.53;;
3217;SDS011;1621;49.702;8.618;2022-12-24T02:35:39;8.10;;;2.83;;
3217;SDS011;1621;49.702;8.618;2022-12-24T02:38:09;9.20;;;2.93;;
3217;SDS011;1621;49.702;8.618;2022-12-24T02:40:37;7.63;;;3.00;;
3217;SDS011;1621;49.702;8.618;2022-12-24T02:43:06;8.93;;;3.17;;
3217;SDS011;1621;49.702;8.618;2022-12-24T02:45:34;11.27;;;3.30;;
3217;SDS011;1621;49.702;8.618;2022-12-24T02:48:02;10.17;;;2.93;;
3217;SDS011;1621;49.702;8.618;2022-12-24T02:50:29;20.00;;;3.20;;
3217;SDS011;1621;49.702;8.618;2022-12-24T02:52:56;11.57;;;3.90;;
3217;SDS011;1621;49.702;8.618;2022-12-24T02:55:23;9.10;;;3.40;;
3217;SDS011;1621;49.702;8.618;2022-12-24T02:58:00;15.60;;;3.50;;
3217;SDS011;1621;49.702;8.618;2022-12-24T03:00:33;13.40;;;2.70;;
3217;SDS011;1621;49.702;8.618;2022-12-24T03:03:10;9.97;;;3.23;;
3217;SDS011;1621;49.702;8.618;2022-12-24T03:05:40;11.20;;;3.17;;
3217;SDS011;1621;49.702;8.618;2022-12-24T03:08:10;9.20;;;3.50;;
3217;SDS011;1621;49.702;8.618;2022-12-24T03:10:39;8.30;;;2.87;;
3217;SDS011;1621;49.702;8.618;2022-12-24T03:13:09;8.47;;;3.20;;
3217;SDS011;1621;49.702;8.618;2022-12-24T03:15:38;7.60;;;3.13;;
3217;SDS011;1621;49.702;8.618;2022-12-24T03:18:05;9.27;;;2.80;;
3217;SDS011;1621;49.702;8.618;2022-12-24T03:20:36;13.70;;;3.20;;
3217;SDS011;1621;49.702;8.618;2022-12-24T03:23:03;11.13;;;3.10;;
3217;SDS011;1621;49.702;8.618;2022-12-24T03:25:30;12.83;;;2.70;;
3217;SDS011;1621;49.702;8.618;2022-12-24T03:27:57;4.80;;;2.20;;
3217;SDS011;1621;49.702;8.618;2022-12-24T03:30:26;8.27;;;2.80;;
3217;SDS011;1621;49.702;8.618;2022-12-24T03:32:52;8.50;;;2.43;;
3217;SDS011;1621;49.702;8.618;2022-12-24T03:35:19;7.07;;;2.80;;
3217;SDS011;1621;49.702;8.618;2022-12-24T03:37:46;16.60;;;3.20;;
3217;SDS011;1621;49.702;8.618;2022-12-24T03:40:13;9.23;;;3.73;;
3217;SDS011;1621;49.702;8.618;2022-12-24T03:42:39;10.93;;;3.80;;
3217;SDS011;1621;49.702;8.618;2022-12-24T03:45:05;13.33;;;2.87;;
3217;SDS011;1621;49.702;8.618;2022-12-24T03:47:32;12.37;;;3.30;;
3217;SDS011;1621;49.702;8.618;2022-12-24T03:49:58;7.60;;;2.60;;
3217;SDS011;1621;49.702;8.618;2022-12-24T03:52:24;9.60;;;2.70;;
3217;SDS011;1621;49.702;8.618;2022-12-24T03:54:52;8.73;;;2.93;;
3217;SDS011;1621;49.702;8.618;2022-12-24T03:57:18;15.27;;;3.70;;
3217;SDS011;1621;49.702;8.618;2022-12-24T03:59:45;8.60;;;3.20;;
3217;SDS011;1621;49.702;8.618;2022-12-24T04:02:11;9.77;;;3.17;;
3217;SDS011;1621;49.702;8.618;2022-12-24T04:04:37;10.43;;;3.17;;
3217;SDS011;1621;49.702;8.618;2022-12-24T04:07:03;10.77;;;2.97;;
3217;SDS011;1621;49.702;8.618;2022-12-24T04:09:30;18.80;;;3.33;;
3217;SDS011;1621;49.702;8.618;2022-12-24T04:11:58;11.93;;;2.77;;
3217;SDS011;1621;49.702;8.618;2022-12-24T04:14:24;10.17;;;3.33;;
3217;SDS011;1621;49.702;8.618;2022-12-24T04:16:50;10.93;;;3.30;;
3217;SDS011;1621;49.702;8.618;2022-12-24T04:19:16;8.80;;;2.83;;
3217;SDS011;1621;49.702;8.618;2022-12-24T04:21:43;26.40;;;6.73;;
3217;SDS011;1621;49.702;8.618;2022-12-24T04:24:09;12.17;;;3.60;;
3217;SDS011;1621;49.702;8.618;2022-12-24T04:26:35;12.03;;;3.67;;
3217;SDS011;1621;49.702;8.618;2022-12-24T04:29:03;9.70;;;3.23;;
3217;SDS011;1621;49.702;8.618;2022-12-24T04:31:29;10.87;;;3.30;;
3217;SDS011;1621;49.702;8.618;2022-12-24T04:33:55;14.97;;;3.20;;
3217;SDS011;1621;49.702;8.618;2022-12-24T04:36:22;7.50;;;2.83;;
3217;SDS011;1621;49.702;8.618;2022-12-24T04:38:48;13.03;;;3.50;;
3217;SDS011;1621;49.702;8.618;2022-12-24T04:41:15;12.60;;;3.67;;
3217;SDS011;1621;49.702;8.618;2022-12-24T04:43:41;12.80;;;3.30;;
3217;SDS011;1621;49.702;8.618;2022-12-24T04:46:10;14.17;;;3.33;;
3217;SDS011;1621;49.702;8.618;2022-12-24T04:48:39;14.40;;;3.60;;
3217;SDS011;1621;49.702;8.618;2022-12-24T04:51:05;11.90;;;4.00;;
3217;SDS011;1621;49.702;8.618;2022-12-24T04:53:32;13.90;;;4.20;;
3217;SDS011;1621;49.702;8.618;2022-12-24T04:55:58;14.73;;;4.03;;
3217;SDS011;1621;49.702;8.618;2022-12-24T04:58:25;10.33;;;3.07;;
3217;SDS011;1621;49.702;8.618;2022-12-24T05:00:52;13.13;;;3.50;;
3217;SDS011;1621;49.702;8.618;2022-12-24T05:03:20;13.20;;;4.10;;
3217;SDS011;1621;49.702;8.618;2022-12-24T05:05:46;11.43;;;3.70;;
3217;SDS011;1621;49.702;8.618;2022-12-24T05:08:12;10.57;;;3.53;;
3217;SDS011;1621;49.702;8.618;2022-12-24T05:10:39;11.20;;;3.40;;
3217;SDS011;1621;49.702;8.618;2022-12-24T05:13:05;14.53;;;3.87;;
3217;SDS011;1621;49.702;8.618;2022-12-24T05:15:31;13.10;;;3.50;;
3217;SDS011;1621;49.702;8.618;2022-12-24T05:17:57;14.00;;;5.10;;
3217;SDS011;1621;49.702;8.618;2022-12-24T05:20:25;12.90;;;3.37;;
3217;SDS011;1621;49.702;8.618;2022-12-24T05:22:51;9.50;;;3.53;;
3217;SDS011;1621;49.702;8.618;2022-12-24T05:25:36;11.33;;;3.83;;
3217;SDS011;1621;49.702;8.618;2022-12-24T05:28:21;16.27;;;4.47;;
3217;SDS011;1621;49.702;8.618;2022-12-24T05:30:47;15.80;;;4.43;;
3217;SDS011;1621;49.702;8.618;2022-12-24T05:33:13;17.00;;;4.63;;
3217;SDS011;1621;49.702;8.618;2022-12-24T05:35:41;12.53;;;3.90;;
3217;SDS011;1621;49.702;8.618;2022-12-24T05:38:07;14.13;;;3.87;;
3217;SDS011;1621;49.702;8.618;2022-12-24T05:40:33;12.77;;;4.07;;
3217;SDS011;1621;49.702;8.618;2022-12-24T05:43:00;13.90;;;4.60;;
3217;SDS011;1621;49.702;8.618;2022-12-24T05:45:27;15.03;;;4.40;;
3217;SDS011;1621;49.702;8.618;2022-12-24T05:47:53;14.90;;;4.67;;
3217;SDS011;1621;49.702;8.618;2022-12-24T05:50:19;18.83;;;4.67;;
3217;SDS011;1621;49.702;8.618;2022-12-24T05:52:47;16.40;;;5.37;;
3217;SDS011;1621;49.702;8.618;2022-12-24T05:55:13;12.83;;;4.47;;
3217;SDS011;1621;49.702;8.618;2022-12-24T05:57:39;15.80;;;4.13;;
3217;SDS011;1621;49.702;8.618;2022-12-24T06:00:06;13.73;;;4.40;;
3217;SDS011;1621;49.702;8.618;2022-12-24T06:02:33;12.57;;;4.07;;
3217;SDS011;1621;49.702;8.618;2022-12-24T06:04:59;14.73;;;4.83;;
3217;SDS011;1621;49.702;8.618;2022-12-24T06:07:25;15.23;;;5.80;;
3217;SDS011;1621;49.702;8.618;2022-12-24T06:09:53;15.37;;;4.40;;
3217;SDS011;1621;49.702;8.618;2022-12-24T06:12:19;13.90;;;4.37;;
3217;SDS011;1621;49.702;8.618;2022-12-24T06:14:45;10.10;;;4.20;;
3217;SDS011;1621;49.702;8.618;2022-12-24T06:17:11;18.23;;;4.83;;
3217;SDS011;1621;49.702;8.618;2022-12-24T06:19:38;16.60;;;3.70;;
3217;SDS011;1621;49.702;8.618;2022-12-24T06:22:04;12.57;;;4.07;;
3217;SDS011;1621;49.702;8.618;2022-12-24T06:24:30;18.23;;;4.23;;
3217;SDS011;1621;49.702;8.618;2022-12-24T06:26:58;11.27;;;4.10;;
3217;SDS011;1621;49.702;8.618;2022-12-24T06:29:24;15.73;;;4.40;;
3217;SDS011;1621;49.702;8.618;2022-12-24T06:31:50;12.10;;;4.97;;
3217;SDS011;1621;49.702;8.618;2022-12-24T06:34:17;17.83;;;4.50;;
3217;SDS011;1621;49.702;8.618;2022-12-24T06:36:43;10.87;;;4.00;;
3217;SDS011;1621;49.702;8.618;2022-12-24T06:39:09;12.30;;;4.10;;
3217;SDS011;1621;49.702;8.618;2022-12-24T06:41:35;19.83;;;4.67;;
3217;SDS011;1621;49.702;8.618;2022-12-24T06:44:03;15.27;;;4.97;;
3217;SDS011;1621;49.702;8.618;2022-12-24T06:46:30;15.30;;;4.33;;
3217;SDS011;1621;49.702;8.618;2022-12-24T06:48:56;12.93;;;4.00;;
3217;SDS011;1621;49.702;8.618;2022-12-24T06:51:22;14.10;;;3.97;;
3217;SDS011;1621;49.702;8.618;2022-12-24T06:53:48;15.50;;;5.17;;
3217;SDS011;1621;49.702;8.618;2022-12-24T06:56:15;13.23;;;4.47;;
3217;SDS011;1621;49.702;8.618;2022-12-24T06:58:42;16.97;;;5.87;;
3217;SDS011;1621;49.702;8.618;2022-12-24T07:01:11;16.37;;;5.50;;
3217;SDS011;1621;49.702;8.618;2022-12-24T07:03:38;12.60;;;4.70;;
3217;SDS011;1621;49.702;8.618;2022-12-24T07:06:04;15.90;;;4.90;;
3217;SDS011;1621;49.702;8.618;2022-12-24T07:08:30;13.60;;;5.03;;
3217;SDS011;1621;49.702;8.618;2022-12-24T07:10:58;14.57;;;4.03;;
3217;SDS011;1621;49.702;8.618;2022-12-24T07:13:24;20.43;;;5.03;;
3217;SDS011;1621;49.702;8.618;2022-12-24T07:15:55;19.00;;;4.70;;
3217;SDS011;1621;49.702;8.618;2022-12-24T07:18:23;18.10;;;4.50;;
3217;SDS011;1621;49.702;8.618;2022-12-24T07:20:49;13.40;;;4.70;;
3217;SDS011;1621;49.702;8.618;2022-12-24T07:23:15;20.13;;;5.80;;
3217;SDS011;1621;49.702;8.618;2022-12-24T07:25:42;25.63;;;5.00;;
3217;SDS011;1621;49.702;8.618;2022-12-24T07:28:08;18.10;;;4.53;;
3217;SDS011;1621;49.702;8.618;2022-12-24T07:30:35;18.33;;;6.03;;
3217;SDS011;1621;49.702;8.618;2022-12-24T07:33:01;14.67;;;5.10;;
3217;SDS011;1621;49.702;8.618;2022-12-24T07:35:28;17.43;;;5.10;;
3217;SDS011;1621;49.702;8.618;2022-12-24T07:37:55;20.43;;;5.30;;
3217;SDS011;1621;49.702;8.618;2022-12-24T07:40:21;12.33;;;4.60;;
3217;SDS011;1621;49.702;8.618;2022-12-24T07:42:47;14.10;;;5.60;;
3217;SDS011;1621;49.702;8.618;2022-12-24T07:45:14;12.97;;;4.87;;
3217;SDS011;1621;49.702;8.618;2022-12-24T07:47:40;16.47;;;5.23;;
3217;SDS011;1621;49.702;8.618;2022-12-24T07:50:07;20.30;;;5.47;;
3217;SDS011;1621;49.702;8.618;2022-12-24T07:52:34;15.43;;;5.60;;
3217;SDS011;1621;49.702;8.618;2022-12-24T07:55:01;25.23;;;6.70;;
3217;SDS011;1621;49.702;8.618;2022-12-24T07:57:27;14.13;;;4.80;;
3217;SDS011;1621;49.702;8.618;2022-12-24T07:59:53;18.30;;;6.73;;
3217;SDS011;1621;49.702;8.618;2022-12-24T08:02:19;16.83;;;5.70;;
3217;SDS011;1621;49.702;8.618;2022-12-24T08:04:46;23.70;;;6.23;;
3217;SDS011;1621;49.702;8.618;2022-12-24T08:07:12;29.57;;;7.47;;
3217;SDS011;1621;49.702;8.618;2022-12-24T08:09:39;14.77;;;5.73;;
3217;SDS011;1621;49.702;8.618;2022-12-24T08:12:06;19.20;;;5.53;;
3217;SDS011;1621;49.702;8.618;2022-12-24T08:14:32;15.43;;;4.87;;
3217;SDS011;1621;49.702;8.618;2022-12-24T08:16:58;17.50;;;5.10;;
3217;SDS011;1621;49.702;8.618;2022-12-24T08:19:25;11.23;;;5.17;;
3217;SDS011;1621;49.702;8.618;2022-12-24T08:21:51;20.20;;;5.17;;
3217;SDS011;1621;49.702;8.618;2022-12-24T08:24:17;17.00;;;6.00;;
3217;SDS011;1621;49.702;8.618;2022-12-24T08:26:45;16.47;;;5.60;;
3217;SDS011;1621;49.702;8.618;2022-12-24T08:29:11;17.30;;;6.37;;
3217;SDS011;1621;49.702;8.618;2022-12-24T08:31:37;19.80;;;5.67;;
3217;SDS011;1621;49.702;8.618;2022-12-24T08:34:04;19.37;;;6.10;;
3217;SDS011;1621;49.702;8.618;2022-12-24T08:36:31;19.07;;;6.23;;
3217;SDS011;1621;49.702;8.618;2022-12-24T08:38:57;22.53;;;6.57;;
3217;SDS011;1621;49.702;8.618;2022-12-24T08:41:27;18.80;;;5.87;;
3217;SDS011;1621;49.702;8.618;2022-12-24T08:43:55;20.63;;;6.03;;
3217;SDS011;1621;49.702;8.618;2022-12-24T08:46:21;24.43;;;6.23;;
3217;SDS011;1621;49.702;8.618;2022-12-24T08:48:47;23.67;;;6.67;;
3217;SDS011;1621;49.702;8.618;2022-12-24T08:51:13;17.80;;;5.20;;
3217;SDS011;1621;49.702;8.618;2022-12-24T08:53:40;20.00;;;6.60;;
3217;SDS011;1621;49.702;8.618;2022-12-24T08:56:07;12.70;;;5.23;;
3217;SDS011;1621;49.702;8.618;2022-12-24T08:58:33;21.87;;;6.10;;
3217;SDS011;1621;49.702;8.618;2022-12-24T09:01:08;15.40;;;5.53;;
3217;SDS011;1621;49.702;8.618;2022-12-24T09:03:34;23.30;;;6.80;;
3217;SDS011;1621;49.702;8.618;2022-12-24T09:06:01;25.37;;;6.33;;
3217;SDS011;1621;49.702;8.618;2022-12-24T09:08:28;24.07;;;6.40;;
3217;SDS011;1621;49.702;8.618;2022-12-24T09:10:54;17.93;;;5.70;;
3217;SDS011;1621;49.702;8.618;2022-12-24T09:13:20;16.40;;;6.00;;
3217;SDS011;1621;49.702;8.618;2022-12-24T09:15:51;21.67;;;6.20;;
3217;SDS011;1621;49.702;8.618;2022-12-24T09:18:19;16.17;;;6.03;;
3217;SDS011;1621;49.702;8.618;2022-12-24T09:20:45;23.00;;;8.50;;
3217;SDS011;1621;49.702;8.618;2022-12-24T09:23:11;22.30;;;6.60;;
3217;SDS011;1621;49.702;8.618;2022-12-24T09:25:39;27.17;;;8.27;;
3217;SDS011;1621;49.702;8.618;2022-12-24T09:28:05;22.73;;;7.90;;
3217;SDS011;1621;49.702;8.618;2022-12-24T09:30:32;26.37;;;7.20;;
3217;SDS011;1621;49.702;8.618;2022-12-24T09:32:58;18.13;;;6.97;;
3217;SDS011;1621;49.702;8.618;2022-12-24T09:35:26;20.30;;;6.40;;
3217;SDS011;1621;49.702;8.618;2022-12-24T09:37:52;19.87;;;7.50;;
3217;SDS011;1621;49.702;8.618;2022-12-24T09:40:28;19.63;;;5.00;;
3217;SDS011;1621;49.702;8.618;2022-12-24T09:42:58;17.70;;;5.43;;
3217;SDS011;1621;49.702;8.618;2022-12-24T09:45:27;20.83;;;5.03;;
3217;SDS011;1621;49.702;8.618;2022-12-24T09:47:54;19.43;;;5.73;;
3217;SDS011;1621;49.702;8.618;2022-12-24T09:50:31;20.57;;;6.03;;
3217;SDS011;1621;49.702;8.618;2022-12-24T09:53:01;19.23;;;5.33;;
3217;SDS011;1621;49.702;8.618;2022-12-24T09:55:29;21.73;;;5.73;;
3217;SDS011;1621;49.702;8.618;2022-12-24T09:57:57;21.47;;;5.70;;
3217;SDS011;1621;49.702;8.618;2022-12-24T10:00:25;20.73;;;6.60;;
3217;SDS011;1621;49.702;8.618;2022-12-24T10:02:52;24.57;;;6.03;;
3217;SDS011;1621;49.702;8.618;2022-12-24T10:05:22;22.50;;;5.77;;
3217;SDS011;1621;49.702;8.618;2022-12-24T10:07:53;23.73;;;5.33;;
3217;SDS011;1621;49.702;8.618;2022-12-24T10:10:23;23.70;;;6.83;;
3217;SDS011;1621;49.702;8.618;2022-12-24T10:12:53;18.97;;;5.90;;
3217;SDS011;1621;49.702;8.618;2022-12-24T10:15:23;26.47;;;6.17;;
3217;SDS011;1621;49.702;8.618;2022-12-24T10:17:55;18.60;;;5.13;;
3217;SDS011;1621;49.702;8.618;2022-12-24T10:20:33;19.43;;;6.00;;
3217;SDS011;1621;49.702;8.618;2022-12-24T10:23:04;21.60;;;5.90;;
3217;SDS011;1621;49.702;8.618;2022-12-24T10:25:33;19.80;;;6.10;;
3217;SDS011;1621;49.702;8.618;2022-12-24T10:28:04;25.67;;;5.73;;
3217;SDS011;1621;49.702;8.618;2022-12-24T10:30:33;20.93;;;5.63;;
3217;SDS011;1621;49.702;8.618;2022-12-24T10:33:00;19.23;;;5.67;;
3217;SDS011;1621;49.702;8.618;2022-12-24T10:35:28;16.27;;;5.77;;
3217;SDS011;1621;49.702;8.618;2022-12-24T10:37:55;19.43;;;6.20;;
3217;SDS011;1621;49.702;8.618;2022-12-24T10:40:26;17.97;;;4.37;;
3217;SDS011;1621;49.702;8.618;2022-12-24T10:42:53;25.60;;;5.90;;
3217;SDS011;1621;49.702;8.618;2022-12-24T10:45:20;22.17;;;6.40;;
3217;SDS011;1621;49.702;8.618;2022-12-24T10:47:47;21.53;;;5.93;;
3217;SDS011;1621;49.702;8.618;2022-12-24T10:50:15;24.57;;;6.20;;
3217;SDS011;1621;49.702;8.618;2022-12-24T10:52:43;17.40;;;5.23;;
3217;SDS011;1621;49.702;8.618;2022-12-24T10:55:10;23.90;;;6.00;;
3217;SDS011;1621;49.702;8.618;2022-12-24T10:57:38;19.43;;;6.63;;
3217;SDS011;1621;49.702;8.618;2022-12-24T11:00:06;19.07;;;6.80;;
3217;SDS011;1621;49.702;8.618;2022-12-24T11:02:33;16.77;;;5.20;;
3217;SDS011;1621;49.702;8.618;2022-12-24T11:05:00;16.73;;;4.97;;
3217;SDS011;1621;49.702;8.618;2022-12-24T11:07:27;16.67;;;5.20;;
3217;SDS011;1621;49.702;8.618;2022-12-24T11:09:54;19.93;;;5.60;;
3217;SDS011;1621;49.702;8.618;2022-12-24T11:12:26;19.57;;;5.67;;
3217;SDS011;1621;49.702;8.618;2022-12-24T11:15:03;17.73;;;5.17;;
3217;SDS011;1621;49.702;8.618;2022-12-24T11:17:30;22.83;;;6.47;;
3217;SDS011;1621;49.702;8.618;2022-12-24T11:19:56;27.13;;;6.23;;
3217;SDS011;1621;49.702;8.618;2022-12-24T11:22:23;20.80;;;5.27;;
3217;SDS011;1621;49.702;8.618;2022-12-24T11:24:56;22.60;;;6.00;;
3217;SDS011;1621;49.702;8.618;2022-12-24T11:27:26;24.80;;;6.10;;
3217;SDS011;1621;49.702;8.618;2022-12-24T11:30:02;16.93;;;5.30;;
3217;SDS011;1621;49.702;8.618;2022-12-24T11:32:36;17.77;;;4.63;;
3217;SDS011;1621;49.702;8.618;2022-12-24T11:35:04;18.90;;;4.70;;
3217;SDS011;1621;49.702;8.618;2022-12-24T11:37:31;26.33;;;5.27;;
3217;SDS011;1621;49.702;8.618;2022-12-24T11:39:59;25.90;;;4.93;;
3217;SDS011;1621;49.702;8.618;2022-12-24T11:42:28;16.43;;;4.90;;
3217;SDS011;1621;49.702;8.618;2022-12-24T11:44:55;17.03;;;5.00;;
3217;SDS011;1621;49.702;8.618;2022-12-24T11:47:32;19.73;;;5.37;;
3217;SDS011;1621;49.702;8.618;2022-12-24T11:52:40;21.93;;;6.37;;
3217;SDS011;1621;49.702;8.618;2022-12-24T11:55:15;20.47;;;5.33;;
3217;SDS011;1621;49.702;8.618;2022-12-24T11:57:46;15.70;;;5.30;;
3217;SDS011;1621;49.702;8.618;2022-12-24T12:00:15;24.77;;;5.97;;
3217;SDS011;1621;49.702;8.618;2022-12-24T12:02:43;16.47;;;6.90;;
3217;SDS011;1621;49.702;8.618;2022-12-24T12:05:12;13.90;;;5.00;;
3217;SDS011;1621;49.702;8.618;2022-12-24T12:07:41;18.13;;;5.33;;
3217;SDS011;1621;49.702;8.618;2022-12-24T12:10:10;19.03;;;4.93;;
3217;SDS011;1621;49.702;8.618;2022-12-24T12:12:40;18.43;;;5.63;;
3217;SDS011;1621;49.702;8.618;2022-12-24T12:15:10;16.93;;;5.47;;
3217;SDS011;1621;49.702;8.618;2022-12-24T12:17:38;18.90;;;5.60;;
3217;SDS011;1621;49.702;8.618;2022-12-24T12:20:09;22.97;;;6.47;;
3217;SDS011;1621;49.702;8.618;2022-12-24T12:22:38;24.43;;;7.23;;
3217;SDS011;1621;49.702;8.618;2022-12-24T12:25:10;21.50;;;5.57;;
3217;SDS011;1621;49.702;8.618;2022-12-24T12:27:43;17.40;;;4.90;;
3217;SDS011;1621;49.702;8.618;2022-12-24T12:30:13;17.43;;;5.40;;
3217;SDS011;1621;49.702;8.618;2022-12-24T12:32:41;23.77;;;5.83;;
3217;SDS011;1621;49.702;8.618;2022-12-24T12:35:17;21.80;;;6.13;;
3217;SDS011;1621;49.702;8.618;2022-12-24T12:37:47;16.93;;;5.20;;
3217;SDS011;1621;49.702;8.618;2022-12-24T12:40:16;20.60;;;5.20;;
3217;SDS011;1621;49.702;8.618;2022-12-24T12:42:44;15.57;;;4.97;;
3217;SDS011;1621;49.702;8.618;2022-12-24T12:45:31;17.47;;;5.30;;
3217;SDS011;1621;49.702;8.618;2022-12-24T12:48:03;21.27;;;5.90;;
3217;SDS011;1621;49.702;8.618;2022-12-24T12:50:38;11.97;;;5.30;;
3217;SDS011;1621;49.702;8.618;2022-12-24T12:53:10;20.07;;;7.13;;
3217;SDS011;1621;49.702;8.618;2022-12-24T12:55:43;21.67;;;6.93;;
3217;SDS011;1621;49.702;8.618;2022-12-24T12:58:12;22.90;;;6.47;;
3217;SDS011;1621;49.702;8.618;2022-12-24T13:00:40;20.20;;;6.33;;
3217;SDS011;1621;49.702;8.618;2022-12-24T13:06:04;20.43;;;6.43;;
3217;SDS011;1621;49.702;8.618;2022-12-24T13:08:39;24.53;;;6.60;;
3217;SDS011;1621;49.702;8.618;2022-12-24T13:11:11;17.27;;;7.10;;
3217;SDS011;1621;49.702;8.618;2022-12-24T13:13:53;23.20;;;7.43;;
3217;SDS011;1621;49.702;8.618;2022-12-24T13:16:38;24.63;;;7.60;;
3217;SDS011;1621;49.702;8.618;2022-12-24T13:19:13;20.23;;;7.30;;
3217;SDS011;1621;49.702;8.618;2022-12-24T13:21:45;17.53;;;7.23;;
3217;SDS011;1621;49.702;8.618;2022-12-24T13:24:14;21.97;;;6.53;;
3217;SDS011;1621;49.702;8.618;2022-12-24T13:26:41;26.80;;;8.73;;
3217;SDS011;1621;49.702;8.618;2022-12-24T13:31:52;24.17;;;8.30;;
3217;SDS011;1621;49.702;8.618;2022-12-24T13:34:31;21.30;;;9.40;;
3217;SDS011;1621;49.702;8.618;2022-12-24T13:37:00;15.83;;;6.10;;
3217;SDS011;1621;49.702;8.618;2022-12-24T13:39:27;21.53;;;8.33;;
3217;SDS011;1621;49.702;8.618;2022-12-24T13:41:54;23.33;;;7.60;;
3217;SDS011;1621;49.702;8.618;2022-12-24T13:44:21;18.03;;;8.43;;
3217;SDS011;1621;49.702;8.618;2022-12-24T13:46:48;18.10;;;7.33;;
3217;SDS011;1621;49.702;8.618;2022-12-24T13:49:17;24.90;;;7.20;;
3217;SDS011;1621;49.702;8.618;2022-12-24T13:51:44;20.80;;;6.67;;
3217;SDS011;1621;49.702;8.618;2022-12-24T13:54:12;17.13;;;5.50;;
3217;SDS011;1621;49.702;8.618;2022-12-24T13:56:39;22.80;;;7.67;;
3217;SDS011;1621;49.702;8.618;2022-12-24T13:59:11;24.07;;;9.20;;
3217;SDS011;1621;49.702;8.618;2022-12-24T14:01:38;26.77;;;9.77;;
3217;SDS011;1621;49.702;8.618;2022-12-24T14:04:06;26.53;;;8.90;;
3217;SDS011;1621;49.702;8.618;2022-12-24T14:06:34;21.47;;;7.83;;
3217;SDS011;1621;49.702;8.618;2022-12-24T14:09:04;24.00;;;7.77;;
3217;SDS011;1621;49.702;8.618;2022-12-24T14:12:12;19.20;;;8.63;;
3217;SDS011;1621;49.702;8.618;2022-12-24T14:14:25;18.47;;;8.93;;
3217;SDS011;1621;49.702;8.618;2022-12-24T14:16:52;22.67;;;8.80;;
3217;SDS011;1621;49.702;8.618;2022-12-24T14:19:20;26.60;;;10.13;;
3217;SDS011;1621;49.702;8.618;2022-12-24T14:21:50;27.57;;;8.17;;
3217;SDS011;1621;49.702;8.618;2022-12-24T14:24:18;25.20;;;6.73;;
3217;SDS011;1621;49.702;8.618;2022-12-24T14:26:50;27.30;;;7.77;;
3217;SDS011;1621;49.702;8.618;2022-12-24T14:29:19;22.17;;;6.57;;
3217;SDS011;1621;49.702;8.618;2022-12-24T14:31:52;19.30;;;6.57;;
3217;SDS011;1621;49.702;8.618;2022-12-24T14:34:18;19.67;;;7.80;;
3217;SDS011;1621;49.702;8.618;2022-12-24T14:36:45;17.97;;;6.93;;
3217;SDS011;1621;49.702;8.618;2022-12-24T14:39:16;14.90;;;6.57;;
3217;SDS011;1621;49.702;8.618;2022-12-24T14:41:46;14.50;;;5.47;;
3217;SDS011;1621;49.702;8.618;2022-12-24T14:44:18;16.97;;;5.93;;
3217;SDS011;1621;49.702;8.618;2022-12-24T14:46:47;12.90;;;4.97;;
3217;SDS011;1621;49.702;8.618;2022-12-24T14:49:17;15.63;;;5.50;;
3217;SDS011;1621;49.702;8.618;2022-12-24T14:51:48;13.03;;;5.00;;
3217;SDS011;1621;49.702;8.618;2022-12-24T14:54:33;14.60;;;5.43;;
3217;SDS011;1621;49.702;8.618;2022-12-24T14:57:13;17.47;;;6.53;;
3217;SDS011;1621;49.702;8.618;2022-12-24T14:59:43;13.90;;;5.40;;
3217;SDS011;1621;49.702;8.618;2022-12-24T15:02:24;13.20;;;5.20;;
3217;SDS011;1621;49.702;8.618;2022-12-24T15:05:07;23.50;;;6.97;;
3217;SDS011;1621;49.702;8.618;2022-12-24T15:07:34;17.33;;;6.07;;
3217;SDS011;1621;49.702;8.618;2022-12-24T15:10:03;18.20;;;5.50;;
3217;SDS011;1621;49.702;8.618;2022-12-24T15:12:29;14.13;;;6.13;;
3217;SDS011;1621;49.702;8.618;2022-12-24T15:14:57;16.63;;;6.70;;
3217;SDS011;1621;49.702;8.618;2022-12-24T15:17:24;17.73;;;6.47;;
3217;SDS011;1621;49.702;8.618;2022-12-24T15:19:50;9.83;;;6.20;;
3217;SDS011;1621;49.702;8.618;2022-12-24T15:22:20;16.53;;;7.83;;